Time;durP1;ratioP1;P1;durP2;ratioP2;P2;SDS_P1;SDS_P2;PMS_P1;PMS_P2;Temp;Humidity;BMP_temperature;BMP_pressure;BME280_temperature;BME280_humidity;BME280_pressure;Samples;Min_cycle;Max_cycle;Signal;HPM_P1;HPM_P2
2023/03/19 00:02:06;;;;;;;4.70;2.40;;;9.80;99.90;;;;;;5139997;27;20473;-77
2023/03/19 00:04:32;;;;;;;6.40;2.45;;;9.80;99.90;;;;;;5114562;27;20055;-77
2023/03/19 00:06:58;;;;;;;5.75;2.42;;;9.80;99.90;;;;;;5151418;27;20038;-77
2023/03/19 00:09:23;;;;;;;4.65;2.40;;;9.80;99.90;;;;;;5140595;27;20438;-76
2023/03/19 00:11:49;;;;;;;11.48;4.55;;;9.80;99.90;;;;;;5144084;27;20039;-76
2023/03/19 00:14:16;;;;;;;20.60;7.65;;;9.80;99.90;;;;;;5149778;27;20125;-77
2023/03/19 00:16:42;;;;;;;19.05;9.48;;;9.80;99.90;;;;;;5139776;27;20114;-75
2023/03/19 00:19:07;;;;;;;25.75;13.52;;;9.80;99.90;;;;;;5148512;27;20039;-77
2023/03/19 00:21:33;;;;;;;22.90;13.48;;;9.80;99.90;;;;;;5145203;27;20030;-77
2023/03/19 00:24:01;;;;;;;24.50;13.57;;;9.80;99.90;;;;;;5142960;27;20464;-77
2023/03/19 00:26:31;;;;;;;18.60;11.32;;;9.80;99.90;;;;;;5126361;27;21717;-78
2023/03/19 00:28:57;;;;;;;16.83;8.55;;;9.70;99.90;;;;;;5147719;27;20126;-77
2023/03/19 00:31:24;;;;;;;9.75;5.60;;;9.70;99.90;;;;;;5141246;27;20157;-77
2023/03/19 00:33:50;;;;;;;7.85;4.82;;;9.70;99.90;;;;;;5142305;27;20031;-76
2023/03/19 00:36:17;;;;;;;11.32;6.53;;;9.60;99.90;;;;;;5143959;27;20023;-77
2023/03/19 00:38:43;;;;;;;10.32;5.97;;;9.60;99.90;;;;;;5150008;27;20030;-77
2023/03/19 00:41:09;;;;;;;10.82;5.40;;;9.50;99.90;;;;;;5144967;27;20067;-77
2023/03/19 00:43:35;;;;;;;8.65;5.10;;;9.50;99.90;;;;;;5144983;27;20533;-77
2023/03/19 00:46:01;;;;;;;7.78;4.32;;;9.40;99.90;;;;;;5148579;27;20070;-77
2023/03/19 00:48:27;;;;;;;7.32;4.15;;;9.50;99.90;;;;;;5143002;27;20102;-77
2023/03/19 00:50:52;;;;;;;12.60;6.03;;;9.30;99.90;;;;;;5138775;27;20363;-77
2023/03/19 00:53:18;;;;;;;11.35;5.85;;;9.30;99.90;;;;;;5145984;27;20031;-76
2023/03/19 00:55:45;;;;;;;8.05;5.10;;;9.30;99.90;;;;;;5135437;27;20035;-77
2023/03/19 00:58:10;;;;;;;10.30;4.70;;;9.30;99.90;;;;;;5146750;27;20098;-78
2023/03/19 01:00:37;;;;;;;11.45;4.82;;;9.30;99.90;;;;;;5147553;27;20027;-78
2023/03/19 01:03:04;;;;;;;9.52;4.18;;;9.40;99.90;;;;;;5156588;27;20372;-78
2023/03/19 01:05:30;;;;;;;9.50;4.22;;;9.40;99.90;;;;;;5148447;27;20033;-77
2023/03/19 01:07:55;;;;;;;10.30;4.68;;;9.40;99.90;;;;;;5140913;27;20023;-77
2023/03/19 01:10:23;;;;;;;7.03;4.28;;;9.50;99.90;;;;;;5140488;27;20094;-77
2023/03/19 01:12:49;;;;;;;10.57;5.07;;;9.50;99.90;;;;;;5154796;27;20045;-77
2023/03/19 01:15:15;;;;;;;14.20;6.57;;;9.60;99.90;;;;;;5155989;27;20035;-77
2023/03/19 01:17:41;;;;;;;14.32;5.50;;;9.60;99.90;;;;;;5155615;27;20357;-74
2023/03/19 01:20:12;;;;;;;10.35;5.25;;;9.70;99.90;;;;;;5155436;27;20022;-77
2023/03/19 01:22:41;;;;;;;6.95;4.13;;;9.70;99.90;;;;;;5156378;27;20090;-74
2023/03/19 01:25:08;;;;;;;7.13;4.37;;;9.80;99.90;;;;;;5155883;27;20030;-77
2023/03/19 01:27:34;;;;;;;10.75;4.43;;;9.80;99.90;;;;;;5150663;27;20026;-78
2023/03/19 01:30:00;;;;;;;9.85;5.00;;;9.90;99.90;;;;;;5153797;27;20023;-78
2023/03/19 01:32:26;;;;;;;9.10;4.05;;;9.90;99.90;;;;;;5151198;27;20031;-78
2023/03/19 01:34:52;;;;;;;7.32;3.90;;;10.00;99.90;;;;;;5154624;27;20034;-77
2023/03/19 01:37:18;;;;;;;6.63;4.00;;;10.10;99.90;;;;;;5156092;27;20082;-77
2023/03/19 01:39:44;;;;;;;7.57;3.90;;;10.10;99.90;;;;;;5154764;27;20014;-77
2023/03/19 01:42:11;;;;;;;6.50;3.83;;;10.10;99.90;;;;;;5143963;27;20373;-78
2023/03/19 01:44:38;;;;;;;9.85;4.20;;;10.10;99.90;;;;;;5136896;27;20045;-78
2023/03/19 01:47:11;;;;;;;7.60;3.47;;;10.00;99.90;;;;;;5147690;27;20113;-77
2023/03/19 01:49:39;;;;;;;6.88;3.25;;;10.10;99.90;;;;;;5155461;27;20019;-78
2023/03/19 01:52:07;;;;;;;7.35;3.05;;;10.10;99.90;;;;;;5147514;27;20030;-77
2023/03/19 01:54:34;;;;;;;4.80;2.65;;;10.10;99.90;;;;;;5151361;27;20106;-76
2023/03/19 01:57:05;;;;;;;5.53;2.50;;;10.30;99.90;;;;;;5138186;27;20037;-77
2023/03/19 01:59:36;;;;;;;7.95;3.58;;;10.40;99.90;;;;;;5148352;27;20030;-77
2023/03/19 02:02:33;;;;;;;4.72;2.50;;;10.70;99.90;;;;;;5146489;27;20022;-76
2023/03/19 02:05:00;;;;;;;8.60;2.67;;;10.90;99.90;;;;;;5145513;27;20071;-77
2023/03/19 02:07:29;;;;;;;3.80;2.35;;;11.10;99.90;;;;;;5148969;27;20031;-77
2023/03/19 02:09:55;;;;;;;4.57;1.95;;;11.20;99.90;;;;;;5147201;27;20053;-77
2023/03/19 02:12:21;;;;;;;5.28;2.13;;;11.30;99.90;;;;;;5141698;27;20079;-77
2023/03/19 02:14:47;;;;;;;3.20;1.90;;;11.30;99.90;;;;;;5150135;27;20425;-77
2023/03/19 02:17:12;;;;;;;7.15;3.00;;;11.30;99.90;;;;;;5154355;27;20035;-77
2023/03/19 02:19:50;;;;;;;3.00;2.28;;;11.40;99.90;;;;;;5148211;27;20039;-74
2023/03/19 02:22:20;;;;;;;5.80;2.20;;;11.40;99.90;;;;;;5140644;27;20031;-77
2023/03/19 02:25:05;;;;;;;5.45;2.60;;;11.40;99.90;;;;;;5147286;27;20392;-77
2023/03/19 02:27:30;;;;;;;5.57;2.50;;;11.30;99.90;;;;;;5148517;27;20026;-75
2023/03/19 02:29:56;;;;;;;4.53;2.35;;;11.30;99.90;;;;;;5146563;27;20375;-78
2023/03/19 02:32:21;;;;;;;5.55;2.67;;;11.20;99.90;;;;;;5152319;27;20395;-78
2023/03/19 02:34:47;;;;;;;7.03;2.70;;;11.00;99.90;;;;;;5150260;27;20611;-77
2023/03/19 02:37:27;;;;;;;5.72;3.15;;;10.80;99.90;;;;;;5136988;27;20076;-77
2023/03/19 02:40:06;;;;;;;3.70;2.60;;;10.50;99.90;;;;;;5145871;27;20027;-76
2023/03/19 02:42:33;;;;;;;5.07;2.50;;;10.20;99.90;;;;;;5150332;27;20057;-76
2023/03/19 02:44:58;;;;;;;4.80;2.55;;;10.00;99.90;;;;;;5146995;27;20113;-76
2023/03/19 02:47:25;;;;;;;5.05;2.90;;;9.80;99.90;;;;;;5151857;27;20125;-76
2023/03/19 02:49:50;;;;;;;5.78;2.90;;;9.70;99.90;;;;;;5144556;27;20035;-76
2023/03/19 02:52:17;;;;;;;3.08;2.50;;;9.70;99.90;;;;;;5144390;27;20375;-75
2023/03/19 02:54:42;;;;;;;4.07;2.60;;;9.80;99.90;;;;;;5144632;27;20039;-73
2023/03/19 02:57:08;;;;;;;3.20;2.35;;;9.70;99.90;;;;;;5150755;27;20484;-76
2023/03/19 02:59:34;;;;;;;4.45;2.67;;;9.70;99.90;;;;;;5148053;27;20037;-75
2023/03/19 03:02:00;;;;;;;2.53;2.33;;;9.70;99.90;;;;;;5148077;27;20585;-76
2023/03/19 03:04:25;;;;;;;4.78;3.25;;;9.70;99.90;;;;;;5143053;27;20097;-75
2023/03/19 03:06:51;;;;;;;3.60;2.83;;;9.60;99.90;;;;;;5145638;27;20122;-76
2023/03/19 03:09:17;;;;;;;3.60;2.10;;;9.60;99.90;;;;;;5148243;27;20110;-76
2023/03/19 03:11:43;;;;;;;3.30;2.10;;;9.70;99.90;;;;;;5152333;27;20038;-77
2023/03/19 03:14:09;;;;;;;3.55;2.53;;;9.60;99.90;;;;;;5138778;27;20035;-76
2023/03/19 03:16:36;;;;;;;3.88;1.95;;;9.60;99.90;;;;;;5132101;27;20050;-76
2023/03/19 03:19:03;;;;;;;4.30;2.50;;;9.70;99.90;;;;;;5141387;27;20023;-76
2023/03/19 03:21:28;;;;;;;5.28;2.70;;;9.70;99.90;;;;;;5134511;27;20484;-75
2023/03/19 03:23:55;;;;;;;4.07;2.72;;;9.60;99.90;;;;;;5132900;27;20033;-76
2023/03/19 03:26:20;;;;;;;7.25;2.85;;;9.60;99.90;;;;;;5133445;27;20023;-76
2023/03/19 03:28:46;;;;;;;3.58;2.50;;;9.60;99.90;;;;;;5152308;27;20026;-75
2023/03/19 03:31:13;;;;;;;4.78;3.00;;;9.50;99.90;;;;;;5146022;27;20031;-76
2023/03/19 03:33:38;;;;;;;4.43;2.97;;;9.50;99.90;;;;;;5150334;27;20418;-73
2023/03/19 03:36:04;;;;;;;6.15;3.10;;;9.40;99.90;;;;;;5144459;27;20045;-75
2023/03/19 03:38:31;;;;;;;5.00;3.42;;;9.40;99.90;;;;;;5149654;27;20110;-75
2023/03/19 03:40:57;;;;;;;7.03;3.10;;;9.40;99.90;;;;;;5144991;27;20102;-76
2023/03/19 03:43:23;;;;;;;4.97;3.47;;;9.40;99.90;;;;;;5145705;27;20535;-76
2023/03/19 03:45:49;;;;;;;4.00;3.30;;;9.40;99.90;;;;;;5135017;27;20046;-75
2023/03/19 03:48:15;;;;;;;5.03;2.70;;;9.40;99.90;;;;;;5148438;27;20098;-75
2023/03/19 03:50:41;;;;;;;3.30;2.38;;;9.50;99.90;;;;;;5129456;27;20019;-73
2023/03/19 03:53:07;;;;;;;4.18;2.60;;;9.50;99.90;;;;;;5146390;27;20030;-75
2023/03/19 03:55:33;;;;;;;4.10;2.40;;;9.50;99.90;;;;;;5143392;27;20043;-75
2023/03/19 03:57:59;;;;;;;4.57;2.63;;;9.50;99.90;;;;;;5143738;27;20065;-76
2023/03/19 04:00:25;;;;;;;3.35;2.50;;;9.50;99.90;;;;;;5136273;27;20027;-76
2023/03/19 04:02:51;;;;;;;3.45;2.30;;;9.50;99.90;;;;;;5148904;27;20034;-75
2023/03/19 04:05:17;;;;;;;4.57;2.90;;;9.40;99.90;;;;;;5151209;27;20121;-75
2023/03/19 04:07:43;;;;;;;4.30;3.03;;;9.40;99.90;;;;;;5127171;27;20031;-73
2023/03/19 04:10:10;;;;;;;8.48;3.50;;;9.30;99.90;;;;;;5148265;27;20027;-76
2023/03/19 04:12:36;;;;;;;5.10;3.40;;;9.30;99.90;;;;;;5152662;27;20030;-74
2023/03/19 04:15:07;;;;;;;5.45;3.65;;;9.30;99.90;;;;;;5137458;27;20115;-76
2023/03/19 04:17:34;;;;;;;6.07;3.53;;;9.20;99.90;;;;;;5139764;27;20023;-76
2023/03/19 04:20:00;;;;;;;6.45;3.38;;;9.20;99.90;;;;;;5133916;27;20058;-76
2023/03/19 04:22:26;;;;;;;7.03;3.85;;;9.20;99.90;;;;;;5139868;27;20054;-75
2023/03/19 04:24:52;;;;;;;5.35;3.83;;;9.30;99.90;;;;;;5146686;27;20023;-74
2023/03/19 04:27:17;;;;;;;7.20;4.63;;;9.30;99.90;;;;;;5160418;27;20031;-75
2023/03/19 04:29:43;;;;;;;9.52;4.43;;;9.30;99.90;;;;;;5175557;27;20030;-73
2023/03/19 04:32:09;;;;;;;7.93;4.80;;;9.30;99.90;;;;;;5159032;27;20022;-74
2023/03/19 04:34:34;;;;;;;11.05;5.63;;;9.40;99.90;;;;;;5162035;27;20035;-76
2023/03/19 04:37:00;;;;;;;6.55;4.55;;;9.30;99.90;;;;;;5147088;27;20023;-76
2023/03/19 04:39:26;;;;;;;6.57;4.25;;;9.30;99.90;;;;;;5151855;27;20426;-76
2023/03/19 04:41:51;;;;;;;4.72;4.20;;;9.30;99.90;;;;;;5159581;27;20030;-75
2023/03/19 04:44:17;;;;;;;5.35;4.15;;;9.20;99.90;;;;;;5163875;27;20038;-76
2023/03/19 04:46:44;;;;;;;5.85;4.10;;;9.20;99.90;;;;;;5164407;27;20074;-75
2023/03/19 04:49:10;;;;;;;5.75;4.10;;;9.20;99.90;;;;;;5162244;27;20034;-75
2023/03/19 04:51:36;;;;;;;6.95;4.53;;;9.20;99.90;;;;;;5159230;27;20027;-75
2023/03/19 04:54:02;;;;;;;7.53;4.90;;;9.20;99.90;;;;;;5137054;27;20084;-75
2023/03/19 04:56:28;;;;;;;6.10;4.45;;;9.10;99.90;;;;;;5129340;27;20380;-76
2023/03/19 04:58:53;;;;;;;6.22;3.72;;;9.10;99.90;;;;;;5139909;27;20031;-75
2023/03/19 05:01:19;;;;;;;6.32;4.75;;;9.10;99.90;;;;;;5145236;27;20018;-76
2023/03/19 05:03:45;;;;;;;8.40;5.10;;;9.10;99.90;;;;;;5147721;27;20540;-76
2023/03/19 05:06:11;;;;;;;6.25;4.70;;;9.10;99.90;;;;;;5117846;28;20023;-76
2023/03/19 05:08:36;;;;;;;9.18;4.40;;;9.20;99.90;;;;;;5141866;27;20031;-76
2023/03/19 05:11:02;;;;;;;6.55;3.83;;;9.20;99.90;;;;;;5143238;27;20149;-76
2023/03/19 05:13:28;;;;;;;4.57;3.88;;;9.10;99.90;;;;;;5133904;27;20045;-75
2023/03/19 05:15:54;;;;;;;6.60;3.83;;;9.10;99.90;;;;;;5132058;27;20038;-75
2023/03/19 05:18:20;;;;;;;7.75;5.05;;;9.20;99.90;;;;;;5133356;27;20023;-75
2023/03/19 05:20:47;;;;;;;6.95;5.13;;;9.10;99.90;;;;;;5133238;27;20027;-75
2023/03/19 05:23:12;;;;;;;5.70;4.05;;;;;;;;;;5131445;28;20027;-75
2023/03/19 05:25:39;;;;;;;6.45;4.10;;;9.10;99.90;;;;;;5130948;27;20028;-73
2023/03/19 05:28:06;;;;;;;6.88;4.40;;;9.10;99.90;;;;;;5141936;27;20029;-75
2023/03/19 05:30:33;;;;;;;8.02;5.47;;;9.10;99.90;;;;;;5149682;27;20060;-75
2023/03/19 05:32:59;;;;;;;7.20;5.65;;;9.00;99.90;;;;;;5138587;27;20039;-75
2023/03/19 05:35:26;;;;;;;8.15;5.72;;;9.00;99.90;;;;;;5139124;27;20043;-76
2023/03/19 05:37:52;;;;;;;10.07;5.60;;;8.90;99.90;;;;;;5141162;27;20418;-75
2023/03/19 05:40:19;;;;;;;7.88;5.85;;;8.90;99.90;;;;;;5141765;27;20497;-77
2023/03/19 05:42:45;;;;;;;9.38;5.53;;;8.80;99.90;;;;;;5151250;27;20470;-76
2023/03/19 05:45:11;;;;;;;7.28;5.50;;;8.80;99.90;;;;;;5147794;27;20030;-76
2023/03/19 05:47:38;;;;;;;9.50;6.35;;;8.80;99.90;;;;;;5144652;27;20450;-75
2023/03/19 05:50:04;;;;;;;9.00;6.47;;;8.80;99.90;;;;;;5153932;27;20038;-75
2023/03/19 05:52:30;;;;;;;9.63;6.55;;;8.70;99.90;;;;;;5135396;27;20387;-75
2023/03/19 05:54:56;;;;;;;11.00;6.50;;;8.70;99.90;;;;;;5137447;27;20031;-75
2023/03/19 05:57:22;;;;;;;9.48;6.07;;;8.70;99.90;;;;;;5154389;27;20058;-75
2023/03/19 05:59:47;;;;;;;7.45;6.00;;;8.70;99.90;;;;;;5138732;27;20034;-75
2023/03/19 06:02:13;;;;;;;12.57;6.32;;;8.70;99.90;;;;;;5124945;27;20104;-75
2023/03/19 06:04:39;;;;;;;9.93;5.68;;;8.70;99.90;;;;;;5134236;27;20019;-75
2023/03/19 06:07:05;;;;;;;6.63;5.20;;;8.70;99.90;;;;;;5137295;27;20030;-76
2023/03/19 06:09:31;;;;;;;5.95;4.90;;;8.80;99.90;;;;;;5153576;27;20137;-76
2023/03/19 06:11:57;;;;;;;6.85;4.80;;;8.80;99.90;;;;;;5150107;27;20362;-75
2023/03/19 06:14:23;;;;;;;6.40;3.97;;;8.80;99.90;;;;;;5139577;27;20033;-75
2023/03/19 06:16:48;;;;;;;8.98;4.57;;;8.80;99.90;;;;;;5143841;27;20035;-75
2023/03/19 06:19:14;;;;;;;7.90;5.13;;;8.80;99.90;;;;;;5147921;27;20158;-76
2023/03/19 06:21:40;;;;;;;9.50;5.97;;;8.90;99.90;;;;;;5147233;27;20023;-73
2023/03/19 06:24:06;;;;;;;8.73;6.15;;;8.80;99.90;;;;;;5148936;27;20031;-75
2023/03/19 06:26:32;;;;;;;8.98;6.15;;;8.90;99.90;;;;;;5147081;27;20031;-76
2023/03/19 06:28:57;;;;;;;11.90;6.43;;;8.90;99.90;;;;;;5148774;27;20567;-75
2023/03/19 06:31:23;;;;;;;11.52;6.55;;;9.00;99.90;;;;;;5136882;27;20059;-75
2023/03/19 06:33:49;;;;;;;8.85;6.13;;;9.00;99.90;;;;;;5146352;27;20043;-74
2023/03/19 06:36:16;;;;;;;10.75;6.15;;;9.00;99.90;;;;;;5146839;27;20027;-75
2023/03/19 06:38:42;;;;;;;10.15;5.82;;;9.00;99.90;;;;;;5147111;27;20117;-73
2023/03/19 06:41:07;;;;;;;11.55;5.55;;;9.10;99.90;;;;;;5134494;27;20142;-76
2023/03/19 06:43:35;;;;;;;9.77;6.05;;;9.10;99.90;;;;;;5143857;27;20466;-76
2023/03/19 06:46:05;;;;;;;6.93;5.15;;;9.10;99.90;;;;;;5136510;27;20045;-76
2023/03/19 06:48:32;;;;;;;10.80;5.45;;;9.10;99.90;;;;;;5143807;27;20031;-75
2023/03/19 06:50:58;;;;;;;10.15;6.00;;;9.10;99.90;;;;;;5145019;27;20023;-75
2023/03/19 06:53:24;;;;;;;10.35;5.13;;;9.20;99.90;;;;;;5145247;27;20068;-76
2023/03/19 06:55:49;;;;;;;10.15;5.80;;;9.20;99.90;;;;;;5137568;27;20041;-75
2023/03/19 06:58:15;;;;;;;8.02;5.25;;;9.30;99.90;;;;;;5143346;27;20027;-76
2023/03/19 07:00:40;;;;;;;10.02;5.30;;;9.30;99.90;;;;;;5140946;27;20061;-73
2023/03/19 07:03:06;;;;;;;9.98;5.55;;;9.40;99.90;;;;;;5152331;27;20080;-76
2023/03/19 07:05:32;;;;;;;8.95;5.32;;;9.60;99.90;;;;;;5143681;27;20027;-75
2023/03/19 07:07:58;;;;;;;7.72;3.53;;;9.70;99.90;;;;;;5137868;27;20820;-75
2023/03/19 07:10:23;;;;;;;4.45;2.63;;;9.80;99.90;;;;;;5147600;27;20461;-75
2023/03/19 07:12:49;;;;;;;4.72;1.95;;;9.90;99.90;;;;;;5138359;27;20404;-75
2023/03/19 07:15:16;;;;;;;3.55;1.70;;;10.20;99.90;;;;;;5147539;27;20027;-75
2023/03/19 07:17:44;;;;;;;3.55;1.75;;;10.40;99.90;;;;;;5143964;27;20027;-75
2023/03/19 07:20:11;;;;;;;3.97;1.55;;;10.50;99.90;;;;;;5144607;27;20046;-86
2023/03/19 07:22:36;;;;;;;2.45;1.60;;;10.60;99.90;;;;;;5152595;27;20473;-84
2023/03/19 07:25:02;;;;;;;5.07;2.22;;;10.70;99.90;;;;;;5153317;27;20037;-85
2023/03/19 07:27:28;;;;;;;4.68;2.20;;;10.80;99.90;;;;;;5147604;27;20031;-75
2023/03/19 07:29:54;;;;;;;3.47;2.00;;;10.90;99.90;;;;;;5146648;27;20025;-75
2023/03/19 07:32:22;;;;;;;5.10;2.55;;;11.00;99.90;;;;;;5144017;27;20047;-75
2023/03/19 07:34:48;;;;;;;5.88;3.67;;;11.00;99.90;;;;;;5139303;27;20038;-75
2023/03/19 07:37:14;;;;;;;7.57;3.53;;;11.20;99.90;;;;;;5153668;27;20034;-74
2023/03/19 07:39:40;;;;;;;7.55;4.00;;;11.30;99.90;;;;;;5139318;27;20030;-76
2023/03/19 07:42:06;;;;;;;8.38;3.33;;;11.30;99.90;;;;;;5138035;27;21387;-74
2023/03/19 07:44:32;;;;;;;4.57;2.33;;;11.30;99.90;;;;;;5137661;27;20035;-73
2023/03/19 07:46:57;;;;;;;3.47;1.80;;;11.30;99.90;;;;;;5137472;27;20141;-74
2023/03/19 07:49:23;;;;;;;5.20;2.15;;;11.30;99.90;;;;;;5137823;27;20569;-74
2023/03/19 07:51:50;;;;;;;3.75;1.65;;;11.40;99.90;;;;;;5133320;27;20491;-73
2023/03/19 07:54:16;;;;;;;3.35;1.77;;;11.40;99.90;;;;;;5134217;27;20149;-73
2023/03/19 07:56:42;;;;;;;3.78;1.98;;;11.50;99.90;;;;;;5142519;27;20041;-74
2023/03/19 07:59:07;;;;;;;7.22;1.90;;;11.50;99.90;;;;;;5146851;27;20026;-73
2023/03/19 08:01:33;;;;;;;3.75;1.85;;;11.50;99.90;;;;;;5134195;27;20031;-73
2023/03/19 08:03:59;;;;;;;2.25;1.50;;;11.60;99.90;;;;;;5136257;27;20101;-72
2023/03/19 08:06:25;;;;;;;3.15;1.70;;;11.60;99.90;;;;;;5149444;27;20022;-71
2023/03/19 08:08:51;;;;;;;3.75;1.60;;;11.70;99.90;;;;;;5150934;27;20022;-71
2023/03/19 08:11:16;;;;;;;3.15;1.55;;;11.80;99.90;;;;;;5140092;27;20057;-73
2023/03/19 08:13:42;;;;;;;3.15;1.70;;;11.90;99.90;;;;;;5117776;27;20039;-72
2023/03/19 08:16:08;;;;;;;5.15;1.50;;;12.00;99.90;;;;;;5151955;27;20031;-73
2023/03/19 08:18:35;;;;;;;2.45;1.42;;;12.00;99.90;;;;;;5142217;27;20354;-73
2023/03/19 08:21:01;;;;;;;5.95;2.08;;;12.10;99.90;;;;;;5142250;27;20025;-72
2023/03/19 08:23:26;;;;;;;3.95;1.45;;;12.20;99.90;;;;;;5151384;27;20027;-72
2023/03/19 08:25:53;;;;;;;2.53;1.58;;;12.40;99.90;;;;;;5132699;27;20035;-71
2023/03/19 08:28:19;;;;;;;4.13;1.67;;;12.50;99.90;;;;;;5137669;27;20038;-71
2023/03/19 08:30:45;;;;;;;3.72;1.98;;;12.60;99.90;;;;;;5147627;27;20023;-73
2023/03/19 08:33:11;;;;;;;2.25;1.58;;;12.60;99.90;;;;;;5137288;27;20034;-71
2023/03/19 08:35:37;;;;;;;3.25;1.83;;;12.60;99.90;;;;;;5134657;27;20073;-71
2023/03/19 08:38:03;;;;;;;5.75;2.38;;;12.70;99.90;;;;;;5129991;28;20024;-69
2023/03/19 08:40:29;;;;;;;4.10;2.30;;;12.70;99.90;;;;;;5138471;27;20452;-71
2023/03/19 08:42:54;;;;;;;5.18;1.92;;;12.70;99.90;;;;;;5136782;27;20030;-72
2023/03/19 08:45:21;;;;;;;5.20;2.13;;;12.80;99.90;;;;;;5130672;27;20456;-75
2023/03/19 08:47:47;;;;;;;3.40;2.38;;;12.90;99.90;;;;;;5143773;27;20023;-76
2023/03/19 08:50:13;;;;;;;4.68;2.00;;;13.00;99.90;;;;;;5150412;27;20464;-74
2023/03/19 08:52:38;;;;;;;2.50;1.58;;;13.10;99.90;;;;;;5140348;27;20034;-74
2023/03/19 08:55:06;;;;;;;3.40;1.75;;;13.20;99.90;;;;;;5132083;27;20485;-77
2023/03/19 08:57:33;;;;;;;4.47;2.10;;;13.30;99.90;;;;;;5132300;27;20031;-74
2023/03/19 08:59:58;;;;;;;5.45;2.05;;;13.30;99.90;;;;;;5133625;27;20098;-82
2023/03/19 09:02:24;;;;;;;4.82;2.10;;;13.40;99.90;;;;;;5146302;27;20389;-78
2023/03/19 09:04:50;;;;;;;4.30;2.15;;;13.40;99.90;;;;;;5129432;27;20043;-71
2023/03/19 09:07:15;;;;;;;2.80;2.13;;;13.50;99.90;;;;;;5131269;27;20032;-74
2023/03/19 09:09:44;;;;;;;5.18;2.28;;;13.50;99.90;;;;;;5149597;27;20046;-73
2023/03/19 09:12:13;;;;;;;4.15;2.33;;;13.50;99.90;;;;;;5135752;27;20026;-75
2023/03/19 09:14:39;;;;;;;7.22;2.47;;;13.50;99.90;;;;;;5147860;27;20039;-74
2023/03/19 09:17:05;;;;;;;3.78;2.22;;;13.50;99.90;;;;;;5153178;27;20019;-74
2023/03/19 09:19:32;;;;;;;5.43;2.50;;;13.50;99.90;;;;;;5144531;27;20496;-73
2023/03/19 09:21:57;;;;;;;3.35;2.20;;;13.70;99.90;;;;;;5136633;27;20031;-72
2023/03/19 09:24:23;;;;;;;4.35;1.88;;;13.80;99.90;;;;;;5147537;27;20037;-74
2023/03/19 09:26:49;;;;;;;6.65;2.42;;;13.90;99.90;;;;;;5153183;27;20023;-72
2023/03/19 09:29:15;;;;;;;4.22;2.50;;;14.00;99.90;;;;;;5145556;27;20054;-70
2023/03/19 09:31:41;;;;;;;5.20;2.58;;;14.10;99.90;;;;;;5143444;27;20023;-74
2023/03/19 09:34:07;;;;;;;5.82;2.47;;;14.20;99.90;;;;;;5153198;27;20504;-74
2023/03/19 09:36:36;;;;;;;3.25;2.25;;;14.50;99.90;;;;;;5130034;27;20049;-73
2023/03/19 09:39:04;;;;;;;6.05;2.75;;;14.70;99.90;;;;;;5140253;27;20058;-73
2023/03/19 09:41:58;;;;;;;4.18;2.50;;;14.90;99.90;;;;;;5133507;27;20102;-72
2023/03/19 09:44:29;;;;;;;4.38;2.80;;;15.20;99.90;;;;;;5146538;27;20030;-72
2023/03/19 09:47:01;;;;;;;4.13;2.20;;;15.40;99.90;;;;;;5132214;27;20038;-72
2023/03/19 09:49:31;;;;;;;4.72;2.05;;;15.40;99.90;;;;;;5146891;27;20034;-72
2023/03/19 09:52:29;;;;;;;5.88;2.40;;;15.30;99.90;;;;;;5145064;27;20537;-73
2023/03/19 09:55:01;;;;;;;3.88;2.30;;;15.10;99.90;;;;;;5135508;27;20134;-72
2023/03/19 09:57:28;;;;;;;5.68;2.35;;;15.20;99.90;;;;;;5141235;27;20038;-71
2023/03/19 09:59:55;;;;;;;2.22;1.73;;;15.30;99.90;;;;;;5144276;27;20055;-72
2023/03/19 10:02:39;;;;;;;4.20;2.40;;;15.40;99.90;;;;;;5136923;27;20027;-72
2023/03/19 10:05:13;;;;;;;7.88;2.33;;;15.50;99.90;;;;;;5128090;27;20871;-74
2023/03/19 10:07:51;;;;;;;6.95;1.95;;;15.70;99.90;;;;;;5142400;27;20042;-76
2023/03/19 10:10:32;;;;;;;5.50;2.40;;;15.80;99.90;;;;;;5148697;27;20027;-75
2023/03/19 10:12:58;;;;;;;4.80;2.00;;;15.90;99.90;;;;;;5138646;27;20066;-73
2023/03/19 10:15:35;;;;;;;8.32;2.05;;;16.10;99.90;;;;;;5131909;27;20071;-73
2023/03/19 10:18:25;;;;;;;5.57;2.63;;;16.20;99.90;;;;;;5137321;27;20134;-76
2023/03/19 10:21:15;;;;;;;3.00;2.00;;;16.30;99.90;;;;;;5145188;27;20126;-72
2023/03/19 10:23:54;;;;;;;5.07;2.17;;;16.30;99.90;;;;;;5135402;27;20035;-76
2023/03/19 10:26:25;;;;;;;3.33;1.73;;;16.30;99.90;;;;;;5137629;27;20037;-74
2023/03/19 10:29:13;;;;;;;5.20;1.95;;;16.40;99.90;;;;;;5145498;27;20388;-76
2023/03/19 10:31:39;;;;;;;3.63;1.92;;;16.50;99.90;;;;;;5146166;27;20030;-75
2023/03/19 10:34:34;;;;;;;3.38;1.80;;;16.60;99.90;;;;;;5140808;27;20431;-75
2023/03/19 10:37:03;;;;;;;2.95;1.88;;;16.60;98.60;;;;;;5136958;27;20026;-80
2023/03/19 10:39:35;;;;;;;4.40;1.90;;;16.50;98.60;;;;;;5145936;27;20027;-74
2023/03/19 10:42:38;;;;;;;4.68;1.92;;;16.50;98.40;;;;;;5145393;27;20018;-89
2023/03/19 10:45:26;;;;;;;2.20;1.67;;;16.60;98.50;;;;;;5140462;27;20137;-80
2023/03/19 10:47:54;;;;;;;5.85;2.03;;;16.80;98.30;;;;;;5151194;27;20031;-78
2023/03/19 10:50:26;;;;;;;5.03;2.08;;;16.90;98.40;;;;;;5144795;27;20031;-80
2023/03/19 10:53:21;;;;;;;3.58;1.90;;;17.00;97.60;;;;;;5154814;27;20038;-78
2023/03/19 10:55:55;;;;;;;2.22;1.90;;;17.20;97.70;;;;;;5147239;27;20144;-79
2023/03/19 10:58:26;;;;;;;5.30;2.00;;;17.40;95.90;;;;;;5148645;27;20031;-78
2023/03/19 11:01:07;;;;;;;4.18;1.60;;;17.60;94.40;;;;;;5139151;27;20027;-80
2023/03/19 11:03:58;;;;;;;3.97;2.10;;;17.70;93.80;;;;;;5153344;27;20361;-74
2023/03/19 11:06:32;;;;;;;4.38;1.83;;;17.80;93.80;;;;;;5138383;27;20042;-74
2023/03/19 11:09:02;;;;;;;2.83;1.67;;;18.00;93.40;;;;;;5141444;27;20015;-73
2023/03/19 11:11:52;;;;;;;4.03;1.77;;;18.20;92.10;;;;;;5144213;27;20431;-74
2023/03/19 11:14:19;;;;;;;2.67;1.50;;;18.30;91.00;;;;;;5146883;27;20421;-79
2023/03/19 11:17:04;;;;;;;3.88;1.70;;;18.20;90.60;;;;;;5151081;27;20027;-76
2023/03/19 11:19:41;;;;;;;4.45;2.00;;;18.20;90.60;;;;;;5143210;27;20022;-76
2023/03/19 11:22:07;;;;;;;3.72;1.65;;;18.10;90.60;;;;;;5151266;27;20038;-75
2023/03/19 11:24:40;;;;;;;6.00;2.10;;;18.20;90.50;;;;;;5140651;27;20027;-75
2023/03/19 11:27:08;;;;;;;4.72;1.60;;;18.30;90.10;;;;;;5150880;27;20027;-74
2023/03/19 11:29:41;;;;;;;3.33;1.83;;;18.40;90.10;;;;;;5143789;27;20027;-75
2023/03/19 11:32:51;;;;;;;5.47;1.90;;;18.50;90.00;;;;;;5149815;27;20027;-74
2023/03/19 11:35:20;;;;;;;4.85;1.90;;;18.50;89.80;;;;;;5149141;27;20122;-76
2023/03/19 11:37:56;;;;;;;3.70;1.98;;;;;;;;;;5143945;27;20042;-77
2023/03/19 11:40:30;;;;;;;5.18;1.77;;;18.90;99.90;;;;;;5152102;27;20492;-76
2023/03/19 11:43:17;;;;;;;5.90;2.15;;;19.20;99.90;;;;;;5146853;27;20054;-76
2023/03/19 11:45:52;;;;;;;3.78;2.08;;;19.40;86.60;;;;;;5135615;27;20047;-79
2023/03/19 11:48:38;;;;;;;7.82;1.92;;;19.50;85.90;;;;;;5146448;27;20306;-78
2023/03/19 11:51:23;;;;;;;4.00;1.80;;;19.70;84.60;;;;;;5143390;27;20019;-76
2023/03/19 11:53:58;;;;;;;5.82;1.90;;;19.70;83.50;;;;;;5145310;27;20496;-73
2023/03/19 11:57:00;;;;;;;2.72;1.50;;;19.60;82.80;;;;;;5149278;27;20449;-76
2023/03/19 11:59:53;;;;;;;3.05;1.63;;;19.60;81.50;;;;;;5123265;27;20037;-79
2023/03/19 12:02:53;;;;;;;4.82;1.95;;;19.50;82.60;;;;;;5138639;27;20410;-76
2023/03/19 12:05:32;;;;;;;3.78;2.00;;;19.50;81.00;;;;;;5149891;27;20430;-79
2023/03/19 12:08:06;;;;;;;4.78;2.28;;;19.40;80.20;;;;;;5144554;27;20041;-80
2023/03/19 12:10:51;;;;;;;2.63;1.67;;;19.20;80.60;;;;;;5135340;27;20031;-77
2023/03/19 12:13:46;;;;;;;4.05;1.80;;;19.30;80.20;;;;;;5152274;27;20014;-79
2023/03/19 12:16:29;;;;;;;4.05;1.50;;;19.80;79.70;;;;;;5141414;27;20028;-78
2023/03/19 12:19:16;;;;;;;4.32;1.92;;;20.20;79.20;;;;;;5145105;27;20022;-76
2023/03/19 12:22:04;;;;;;;4.95;1.90;;;20.30;78.20;;;;;;5148696;27;20022;-73
2023/03/19 12:24:53;;;;;;;3.63;2.20;;;20.40;77.90;;;;;;5150808;27;20101;-74
2023/03/19 12:27:47;;;;;;;5.93;2.35;;;20.20;77.40;;;;;;5147109;27;20030;-73
2023/03/19 12:30:52;;;;;;;4.95;1.80;;;20.00;77.50;;;;;;5148057;27;20051;-72
2023/03/19 12:33:57;;;;;;;2.83;1.40;;;19.80;78.10;;;;;;5133394;27;20473;-75
2023/03/19 12:36:27;;;;;;;4.13;1.83;;;19.80;78.50;;;;;;5149557;27;20035;-74
2023/03/19 12:39:09;;;;;;;7.47;2.45;;;20.00;78.10;;;;;;5141022;27;20034;-73
2023/03/19 12:41:41;;;;;;;3.75;1.83;;;20.10;78.10;;;;;;5135057;27;20050;-68
2023/03/19 12:44:21;;;;;;;5.07;1.98;;;20.10;78.00;;;;;;5147866;27;20023;-71
2023/03/19 12:46:52;;;;;;;5.97;2.10;;;20.00;77.40;;;;;;5140562;27;20047;-70
2023/03/19 12:49:42;;;;;;;3.10;1.73;;;19.90;77.70;;;;;;5146246;27;20110;-71
2023/03/19 12:52:22;;;;;;;6.10;2.22;;;20.00;78.10;;;;;;5130618;27;20022;-71
2023/03/19 12:55:01;;;;;;;4.85;2.20;;;20.00;77.80;;;;;;5147086;27;20434;-75
2023/03/19 12:57:36;;;;;;;5.32;1.65;;;20.00;77.80;;;;;;5145486;27;20019;-75
2023/03/19 13:00:14;;;;;;;3.45;1.90;;;20.10;76.90;;;;;;5146400;27;20678;-70
2023/03/19 13:02:42;;;;;;;2.97;2.00;;;19.90;77.80;;;;;;5157599;27;20023;-72
2023/03/19 13:05:21;;;;;;;2.92;1.63;;;19.60;78.00;;;;;;5153785;27;20477;-72